Time;durP1;ratioP1;P1;durP2;ratioP2;P2;SDS_P1;SDS_P2;PMS_P1;PMS_P2;Temp;Humidity;BMP_temperature;BMP_pressure;BME280_temperature;BME280_humidity;BME280_pressure;Samples;Min_cycle;Max_cycle;Signal;HPM_P1;HPM_P2
2023/07/14 00:01:44;;;;;;;12.93;9.73;;;;;;;;;;4920577;29;20138;-87
2023/07/14 00:04:13;;;;;;;17.60;9.88;;;;;;;;;;4921886;29;20052;-87
2023/07/14 00:06:40;;;;;;;17.38;10.82;;;;;;;;;;4920880;29;20051;-86
2023/07/14 00:09:29;;;;;;;14.65;9.52;;;;;;;;;;4921117;29;20052;-86
2023/07/14 00:11:57;;;;;;;15.25;10.07;;;;;;;;;;4919631;29;20476;-86
2023/07/14 00:14:24;;;;;;;16.88;10.35;;;;;;;;;;4921744;29;20059;-86
2023/07/14 00:16:51;;;;;;;17.27;10.00;;;;;;;;;;4920767;29;20059;-87
2023/07/14 00:19:19;;;;;;;13.60;10.60;;;;;;;;;;4918856;29;20076;-87
2023/07/14 00:21:46;;;;;;;20.30;11.48;;;;;;;;;;4919574;29;20119;-87
2023/07/14 00:24:20;;;;;;;13.73;10.85;;;;;;;;;;4919755;29;20052;-87
2023/07/14 00:26:53;;;;;;;15.27;9.95;;;;;;;;;;4919691;29;20060;-87
2023/07/14 00:29:26;;;;;;;17.63;10.60;;;;;;;;;;4922049;29;20123;-86
2023/07/14 00:31:53;;;;;;;15.25;10.70;;;;;;;;;;4920707;29;20059;-87
2023/07/14 00:34:19;;;;;;;16.67;11.68;;;;;;;;;;4920431;29;20417;-86
2023/07/14 00:36:49;;;;;;;16.80;11.00;;;;;;;;;;4921926;29;20051;-87
2023/07/14 00:39:16;;;;;;;18.52;11.32;;;;;;;;;;4920849;29;20044;-87
2023/07/14 00:41:43;;;;;;;20.15;11.77;;;;;;;;;;4922131;29;20118;-87
2023/07/14 00:44:13;;;;;;;17.23;10.55;;;;;;;;;;4920912;29;20099;-87
2023/07/14 00:46:40;;;;;;;29.67;12.05;;;;;;;;;;4922229;29;20115;-87
2023/07/14 00:49:13;;;;;;;17.50;11.05;;;;;;;;;;4922024;29;20060;-87
2023/07/14 00:51:40;;;;;;;16.08;11.50;;;;;;;;;;4924141;29;20056;-87
2023/07/14 00:54:21;;;;;;;16.23;10.88;;;;;;;;;;4926496;29;20292;-87
2023/07/14 00:56:49;;;;;;;16.42;11.55;;;;;;;;;;4925828;29;20553;-87
2023/07/14 00:59:17;;;;;;;21.70;10.88;;;;;;;;;;4925674;29;20052;-87
2023/07/14 01:02:06;;;;;;;17.92;10.90;;;;;;;;;;4928671;29;20119;-87
2023/07/14 01:04:33;;;;;;;13.13;9.93;;;;;;;;;;4929858;29;20052;-87
2023/07/14 01:07:01;;;;;;;17.38;11.40;;;;;;;;;;4929820;29;20087;-87
2023/07/14 01:09:28;;;;;;;16.95;10.55;;;;;;;;;;4930721;29;20062;-87
2023/07/14 01:11:56;;;;;;;15.38;11.27;;;;;;;;;;4926082;29;20070;-87
2023/07/14 01:14:28;;;;;;;18.83;12.00;;;;;;;;;;4928759;29;20064;-87
2023/07/14 01:16:57;;;;;;;15.40;12.00;;;;;;;;;;4925986;29;20075;-87
2023/07/14 01:19:31;;;;;;;17.35;11.38;;;;;;;;;;4923265;29;20048;-87
2023/07/14 01:22:24;;;;;;;20.40;11.43;;;;;;;;;;4924497;29;20032;-87
2023/07/14 01:25:09;;;;;;;18.90;11.07;;;;;;;;;;4934127;29;20083;-87
2023/07/14 01:27:36;;;;;;;19.05;12.35;;;;;;;;;;4934524;29;20106;-87
2023/07/14 01:30:04;;;;;;;18.60;11.52;;;;;;;;;;4917715;29;20048;-87
2023/07/14 01:32:34;;;;;;;18.67;11.35;;;;;;;;;;4916500;29;20054;-87
2023/07/14 01:35:01;;;;;;;18.58;10.57;;;;;;;;;;4917298;29;20048;-87
2023/07/14 01:37:28;;;;;;;18.58;11.30;;;;;;;;;;4917728;29;20068;-87
2023/07/14 01:39:57;;;;;;;19.30;10.88;;;;;;;;;;4917039;29;20049;-88
2023/07/14 01:42:24;;;;;;;18.13;11.00;;;;;;;;;;4917671;29;20048;-87
2023/07/14 01:44:55;;;;;;;14.73;10.30;;;;;;;;;;4914281;29;20499;-87
2023/07/14 01:47:23;;;;;;;19.02;13.00;;;;;;;;;;4907219;29;20670;-87
2023/07/14 01:49:52;;;;;;;21.88;13.00;;;;;;;;;;4908582;29;20064;-87
2023/07/14 01:52:29;;;;;;;19.20;12.27;;;;;;;;;;4907675;29;20171;-87
2023/07/14 01:54:58;;;;;;;19.83;11.95;;;;;;;;;;4907475;29;20125;-87
2023/07/14 01:57:27;;;;;;;25.42;14.23;;;;;;;;;;4907423;29;20053;-87
2023/07/14 01:59:58;;;;;;;18.77;12.60;;;;;;;;;;4907475;29;20068;-87
2023/07/14 02:02:28;;;;;;;20.70;14.00;;;;;;;;;;4906667;29;20056;-87
2023/07/14 02:04:55;;;;;;;19.92;13.18;;;;;;;;;;4908319;29;20087;-87
2023/07/14 02:07:21;;;;;;;19.30;13.63;;;;;;;;;;4909785;29;20072;-87
2023/07/14 02:09:48;;;;;;;22.00;13.63;;;;;;;;;;4908932;29;20131;-87
2023/07/14 02:12:17;;;;;;;22.10;12.93;;;;;;;;;;4908053;29;20069;-87
2023/07/14 02:14:46;;;;;;;19.33;12.00;;;;;;;;;;4908332;29;20152;-87
2023/07/14 02:17:20;;;;;;;20.67;14.20;;;;;;;;;;4907274;29;20056;-87
2023/07/14 02:19:52;;;;;;;26.85;13.68;;;;;;;;;;4908628;29;20156;-87
2023/07/14 02:22:19;;;;;;;19.65;13.68;;;;;;;;;;4910477;29;20048;-87
2023/07/14 02:24:46;;;;;;;24.23;14.80;;;;;;;;;;4909039;29;20057;-86
2023/07/14 02:27:13;;;;;;;21.10;14.32;;;;;;;;;;4907349;29;20318;-87
2023/07/14 02:29:40;;;;;;;22.45;14.70;;;;;;;;;;4940710;29;20063;-87
2023/07/14 02:32:13;;;;;;;25.65;14.60;;;;;;;;;;4944415;29;20295;-87
2023/07/14 02:34:43;;;;;;;23.13;15.48;;;;;;;;;;4928967;29;20119;-87
2023/07/14 02:37:34;;;;;;;23.52;14.63;;;;;;;;;;4945208;29;20374;-87
2023/07/14 02:40:04;;;;;;;26.60;16.13;;;;;;;;;;4943615;29;20091;-87
2023/07/14 02:42:35;;;;;;;24.40;14.60;;;;;;;;;;4943654;29;20051;-88
2023/07/14 02:45:02;;;;;;;24.15;15.77;;;;;;;;;;4927589;29;20052;-88
2023/07/14 02:47:32;;;;;;;27.83;16.88;;;;;;;;;;4942964;29;20205;-88
2023/07/14 02:49:59;;;;;;;25.23;16.23;;;;;;;;;;4942001;29;20060;-87
2023/07/14 02:52:25;;;;;;;27.25;18.27;;;;;;;;;;4942634;29;20094;-88
2023/07/14 02:54:52;;;;;;;26.40;16.30;;;;;;;;;;4926504;29;20124;-88
2023/07/14 02:57:19;;;;;;;31.10;16.23;;;;;;;;;;4926668;29;20058;-87
2023/07/14 02:59:49;;;;;;;27.83;17.23;;;;;;;;;;4927232;29;20047;-87
2023/07/14 03:02:16;;;;;;;26.35;17.23;;;;;;;;;;4943156;29;20051;-87
2023/07/14 03:04:43;;;;;;;27.48;16.45;;;;;;;;;;4943749;29;20052;-86
2023/07/14 03:07:09;;;;;;;29.98;16.45;;;;;;;;;;4944890;29;20106;-86
2023/07/14 03:09:36;;;;;;;26.70;17.88;;;;;;;;;;4943534;29;20075;-87
2023/07/14 03:12:03;;;;;;;26.63;16.85;;;;;;;;;;4943809;29;20102;-87
2023/07/14 03:14:30;;;;;;;29.92;16.83;;;;;;;;;;4929735;29;20051;-87
2023/07/14 03:17:04;;;;;;;28.98;16.70;;;;;;;;;;4945436;28;20063;-86
2023/07/14 03:19:45;;;;;;;25.27;16.17;;;;;;;;;;4945736;28;20103;-87
2023/07/14 03:22:30;;;;;;;23.50;16.40;;;;;;;;;;4945593;28;20023;-88
2023/07/14 03:25:11;;;;;;;27.90;16.83;;;;;;;;;;4945186;28;20062;-87
2023/07/14 03:27:39;;;;;;;28.15;17.13;;;;;;;;;;4944699;28;20039;-86
2023/07/14 03:30:22;;;;;;;31.33;17.27;;;;;;;;;;4912993;29;20049;-88
2023/07/14 03:33:32;;;;;;;27.50;18.08;;;;;;;;;;4921153;29;20040;-88
2023/07/14 03:36:20;;;;;;;25.52;16.80;;;;;;;;;;4923006;29;20028;-88
2023/07/14 03:39:20;;;;;;;25.95;17.00;;;;;;;;;;4922783;29;20041;-88
2023/07/14 03:44:39;;;;;;;29.65;15.93;;;;;;;;;;5035880;23;20070;-88
2023/07/14 03:47:27;;;;;;;28.92;15.25;;;;;;;;;;4926669;29;20028;-85
2023/07/14 03:50:19;;;;;;;21.83;15.65;;;;;;;;;;5018634;23;20082;-87
2023/07/14 03:53:02;;;;;;;24.98;16.45;;;;;;;;;;5349501;23;20043;-88
2023/07/14 03:55:43;;;;;;;22.35;16.15;;;;;;;;;;4959822;28;20079;-88
2023/07/14 03:58:28;;;;;;;25.77;15.43;;;;;;;;;;4959729;28;20027;-87
2023/07/14 04:01:08;;;;;;;27.58;16.23;;;;;;;;;;4943218;28;20067;-86
2023/07/14 04:03:50;;;;;;;24.60;15.57;;;;;;;;;;4959613;28;20050;-84
2023/07/14 04:06:30;;;;;;;27.08;16.80;;;;;;;;;;4959746;28;20027;-88
2023/07/14 04:09:15;;;;;;;27.08;16.02;;;;;;;;;;5378252;23;20048;-87
2023/07/14 04:11:56;;;;;;;28.73;16.88;;;;;;;;;;4922643;29;20429;-87
2023/07/14 04:14:40;;;;;;;26.65;16.63;;;;;;;;;;4934578;29;20029;-87
2023/07/14 04:17:22;;;;;;;25.75;16.55;;;;;;;;;;4921873;29;20029;-85
2023/07/14 04:20:08;;;;;;;29.95;18.90;;;;;;;;;;4920690;29;20021;-89
2023/07/14 04:22:50;;;;;;;29.85;19.40;;;;;;;;;;4921553;29;20077;-87
2023/07/14 04:25:30;;;;;;;29.27;18.02;;;;;;;;;;4921667;29;20043;-87
2023/07/14 04:28:11;;;;;;;28.73;19.45;;;;;;;;;;4921488;29;20040;-87
2023/07/14 04:30:52;;;;;;;32.53;19.73;;;;;;;;;;4921118;29;20064;-87
2023/07/14 04:33:40;;;;;;;31.08;19.20;;;;;;;;;;4922009;29;20028;-87
2023/07/14 04:39:20;;;;;;;29.90;18.70;;;;;;;;;;4988004;23;20098;-87
2023/07/14 04:47:46;;;;;;;25.42;16.35;;;;;;;;;;5280029;23;20067;-86
2023/07/14 04:50:28;;;;;;;25.35;17.75;;;;;;;;;;4942443;28;20044;-88
2023/07/14 04:53:00;;;;;;;25.38;17.30;;;;;;;;;;4942046;28;20063;-86
2023/07/14 04:55:50;;;;;;;24.17;15.32;;;;;;;;;;4956764;28;20020;-88
2023/07/14 04:58:35;;;;;;;24.70;14.18;;;;;;;;;;4944356;28;20024;-86
2023/07/14 05:01:19;;;;;;;18.77;14.52;;;;;;;;;;4951256;28;20048;-86
2023/07/14 05:07:24;;;;;;;19.23;13.45;;;;;;;;;;4955903;28;20027;-86
2023/07/14 05:10:05;;;;;;;26.02;14.70;;;;;;;;;;4941634;29;20296;-87
2023/07/14 05:12:45;;;;;;;26.15;15.15;;;;;;;;;;4939503;29;20059;-87
2023/07/14 05:15:25;;;;;;;22.83;14.10;;;;;;;;;;4954501;29;20230;-87
2023/07/14 05:17:58;;;;;;;22.40;14.23;;;;;;;;;;4955677;28;20059;-88
2023/07/14 05:23:26;;;;;;;20.13;13.30;;;;;;;;;;4932751;29;20055;-87
2023/07/14 05:26:08;;;;;;;20.70;14.77;;;;;;;;;;4932356;29;20119;-87
2023/07/14 05:29:23;;;;;;;20.17;13.38;;;;;;;;;;4919936;29;20072;-86
2023/07/14 05:32:21;;;;;;;21.13;14.02;;;;;;;;;;4921337;29;20036;-88
2023/07/14 05:38:42;;;;;;;23.00;14.38;;;;;;;;;;4936172;29;20076;-87
2023/07/14 05:41:42;;;;;;;24.75;14.32;;;;;;;;;;4936875;29;20047;-88
2023/07/14 05:44:26;;;;;;;18.75;14.48;;;;;;;;;;4936019;29;20099;-88
2023/07/14 05:47:08;;;;;;;21.30;12.50;;;;;;;;;;4935933;29;20078;-87
2023/07/14 05:49:48;;;;;;;27.02;13.20;;;;;;;;;;4936058;29;20117;-88
2023/07/14 05:52:29;;;;;;;17.23;12.93;;;;;;;;;;4934212;29;20087;-87
2023/07/14 05:55:10;;;;;;;19.65;12.98;;;;;;;;;;4930223;29;20139;-87
2023/07/14 05:57:59;;;;;;;20.42;12.45;;;;;;;;;;4934787;29;20044;-86
2023/07/14 06:00:40;;;;;;;18.63;12.73;;;;;;;;;;4934160;29;20051;-87
2023/07/14 06:03:23;;;;;;;18.35;11.75;;;;;;;;;;4933247;29;20056;-88
2023/07/14 06:06:05;;;;;;;18.27;12.05;;;;;;;;;;4934742;29;20029;-89
2023/07/14 06:08:40;;;;;;;20.15;11.73;;;;;;;;;;4936113;29;20156;-86
2023/07/14 06:11:20;;;;;;;18.30;11.25;;;;;;;;;;4933449;29;20032;-87
2023/07/14 06:14:04;;;;;;;21.40;11.65;;;;;;;;;;4934702;29;20051;-88
2023/07/14 06:16:45;;;;;;;17.15;12.23;;;;;;;;;;4935579;29;20219;-87
2023/07/14 06:19:25;;;;;;;21.70;13.25;;;;;;;;;;4931667;29;20124;-87
2023/07/14 06:22:06;;;;;;;20.58;13.00;;;;;;;;;;4930119;29;20436;-86
2023/07/14 06:24:48;;;;;;;24.60;12.98;;;;;;;;;;5011474;23;20046;-87
2023/07/14 06:27:33;;;;;;;21.00;11.07;;;;;;;;;;4940375;29;20144;-87
2023/07/14 06:30:26;;;;;;;25.00;12.02;;;;;;;;;;4950940;29;20052;-86
2023/07/14 06:33:01;;;;;;;19.88;10.90;;;;;;;;;;4936598;29;20070;-86
2023/07/14 06:35:38;;;;;;;17.10;10.70;;;;;;;;;;4949800;29;20063;-87
2023/07/14 06:38:22;;;;;;;22.42;11.27;;;;;;;;;;4936086;29;20371;-87
2023/07/14 06:40:55;;;;;;;21.73;10.70;;;;;;;;;;4953517;28;20099;-86
2023/07/14 06:43:45;;;;;;;18.15;11.45;;;;;;;;;;4934811;29;20048;-86
2023/07/14 06:46:34;;;;;;;15.45;10.18;;;;;;;;;;4950316;29;20062;-89
2023/07/14 06:49:15;;;;;;;17.25;9.60;;;;;;;;;;4951011;29;20023;-87
2023/07/14 06:51:57;;;;;;;14.68;9.68;;;;;;;;;;5029699;23;20083;-86
2023/07/14 06:54:38;;;;;;;14.13;9.63;;;;;;;;;;4932871;29;20052;-89
2023/07/14 06:57:34;;;;;;;15.98;10.13;;;;;;;;;;4915503;29;20077;-87
2023/07/14 07:00:15;;;;;;;20.65;10.65;;;;;;;;;;4916861;29;20122;-88
2023/07/14 07:02:56;;;;;;;19.83;11.00;;;;;;;;;;4925785;29;20050;-87
2023/07/14 07:05:26;;;;;;;17.05;9.80;;;;;;;;;;4931549;29;20091;-88
2023/07/14 07:08:11;;;;;;;20.40;10.23;;;;;;;;;;4932087;29;20044;-88
2023/07/14 07:10:52;;;;;;;15.77;10.18;;;;;;;;;;4930957;29;20066;-87
2023/07/14 07:13:32;;;;;;;21.10;9.70;;;;;;;;;;4918736;29;20035;-88
2023/07/14 07:16:50;;;;;;;24.00;9.95;;;;;;;;;;4931479;29;20036;-88
2023/07/14 07:19:33;;;;;;;11.55;7.63;;;;;;;;;;4915910;29;20040;-87
2023/07/14 07:22:33;;;;;;;12.77;8.27;;;;;;;;;;4929845;29;20052;-87
2023/07/14 07:25:23;;;;;;;13.38;8.05;;;;;;;;;;4930712;29;20425;-87
2023/07/14 07:28:05;;;;;;;10.57;7.65;;;;;;;;;;4915828;29;20136;-87
2023/07/14 07:30:52;;;;;;;11.93;8.15;;;;;;;;;;4931237;29;20108;-87
2023/07/14 07:33:32;;;;;;;16.40;8.15;;;;;;;;;;4920731;29;20076;-87
2023/07/14 07:36:16;;;;;;;18.77;8.10;;;;;;;;;;4932052;29;20110;-88
2023/07/14 07:38:59;;;;;;;11.50;7.72;;;;;;;;;;4931625;29;20056;-87
2023/07/14 07:41:39;;;;;;;12.50;7.47;;;;;;;;;;4916677;29;20390;-88
2023/07/14 07:44:20;;;;;;;11.35;6.90;;;;;;;;;;4927704;29;20091;-88
2023/07/14 07:47:23;;;;;;;12.65;5.63;;;;;;;;;;4928454;29;20061;-88
2023/07/14 07:50:07;;;;;;;9.10;5.78;;;;;;;;;;4914327;29;20043;-88
2023/07/14 07:52:48;;;;;;;11.27;6.47;;;;;;;;;;4910164;29;20104;-88
2023/07/14 07:55:54;;;;;;;10.55;6.22;;;;;;;;;;4914847;29;20081;-88
2023/07/14 07:58:38;;;;;;;16.55;6.05;;;;;;;;;;4913625;29;20060;-88
2023/07/14 08:01:22;;;;;;;10.80;4.80;;;;;;;;;;4912547;29;20066;-88
2023/07/14 08:04:06;;;;;;;13.52;5.32;;;;;;;;;;4916706;29;20064;-87
2023/07/14 08:06:50;;;;;;;10.80;4.45;;;;;;;;;;4916441;29;20119;-89
2023/07/14 08:09:38;;;;;;;7.55;4.63;;;;;;;;;;4926610;29;20127;-88
2023/07/14 08:12:21;;;;;;;8.98;4.47;;;;;;;;;;5077214;23;20056;-90
2023/07/14 08:15:12;;;;;;;7.72;3.58;;;;;;;;;;4936342;29;20043;-89
2023/07/14 08:20:38;;;;;;;8.60;4.00;;;;;;;;;;5087972;23;20254;-88
2023/07/14 08:23:23;;;;;;;5.72;3.13;;;;;;;;;;4721015;27;20230;-88
2023/07/14 08:26:32;;;;;;;7.35;3.92;;;;;;;;;;5075933;23;20115;-89
2023/07/14 08:29:13;;;;;;;9.05;3.60;;;;;;;;;;4950609;28;20115;-87
2023/07/14 08:31:54;;;;;;;8.38;3.90;;;;;;;;;;4934019;29;20192;-90
2023/07/14 08:34:39;;;;;;;8.57;4.10;;;;;;;;;;4927645;29;20071;-87
2023/07/14 08:37:30;;;;;;;6.75;3.15;;;;;;;;;;4948640;29;20117;-87
2023/07/14 08:40:36;;;;;;;5.95;3.35;;;;;;;;;;4931986;29;20051;-87
2023/07/14 08:43:43;;;;;;;4.60;2.70;;;;;;;;;;4948929;29;20056;-87
2023/07/14 08:46:55;;;;;;;7.45;2.38;;;;;;;;;;4934209;28;20055;-88
2023/07/14 08:53:08;;;;;;;5.72;2.92;;;;;;;;;;4953783;28;20109;-90
2023/07/14 08:55:49;;;;;;;8.13;3.15;;;;;;;;;;4936204;29;20103;-88
2023/07/14 08:59:05;;;;;;;6.03;2.92;;;;;;;;;;4937794;29;20119;-88
2023/07/14 09:01:50;;;;;;;6.95;3.65;;;;;;;;;;4937424;29;20055;-86
2023/07/14 09:04:35;;;;;;;9.10;3.30;;;;;;;;;;4937831;28;20047;-88
2023/07/14 09:07:19;;;;;;;10.68;3.13;;;;;;;;;;4936186;29;20577;-89
2023/07/14 09:10:09;;;;;;;6.32;3.50;;;;;;;;;;4936602;29;20040;-89
2023/07/14 09:13:15;;;;;;;6.35;3.58;;;;;;;;;;4938926;28;20032;-88
2023/07/14 09:16:01;;;;;;;5.18;2.90;;;;;;;;;;4940412;28;20104;-88
2023/07/14 09:19:00;;;;;;;6.63;2.42;;;;;;;;;;4956349;28;20186;-88
2023/07/14 09:25:16;;;;;;;8.73;2.65;;;;;;;;;;4954958;28;20039;-88
2023/07/14 09:28:06;;;;;;;4.55;2.40;;;;;;;;;;5048534;23;20040;-89
2023/07/14 09:30:52;;;;;;;3.65;1.90;;;;;;;;;;4923484;28;20055;-90
2023/07/14 09:33:45;;;;;;;6.05;1.52;;;;;;;;;;4937051;28;20032;-88
2023/07/14 09:36:31;;;;;;;2.78;1.58;;;;;;;;;;4923340;28;20036;-89
2023/07/14 09:39:44;;;;;;;6.00;1.88;;;;;;;;;;4925349;28;20058;-89
2023/07/14 09:42:40;;;;;;;5.72;2.13;;;;;;;;;;4938388;28;20039;-91
2023/07/14 09:45:35;;;;;;;4.60;1.88;;;;;;;;;;4937378;29;20043;-89
2023/07/14 09:48:31;;;;;;;8.05;3.35;;;;;;;;;;4920774;28;20051;-90
2023/07/14 09:51:14;;;;;;;4.55;1.73;;;;;;;;;;4923871;29;20043;-89
2023/07/14 09:54:34;;;;;;;3.40;1.92;;;;;;;;;;4937615;28;20131;-89
2023/07/14 09:57:17;;;;;;;4.63;2.17;;;;;;;;;;4907901;28;20036;-90
2023/07/14 10:00:14;;;;;;;4.50;1.67;;;;;;;;;;4924746;28;20048;-88
2023/07/14 10:03:20;;;;;;;5.35;1.90;;;;;;;;;;4938031;28;20104;-90
2023/07/14 10:06:30;;;;;;;5.03;2.03;;;;;;;;;;4924949;28;20047;-88
2023/07/14 10:09:22;;;;;;;9.52;1.60;;;;;;;;;;4931526;28;20388;-88
2023/07/14 10:12:10;;;;;;;7.72;2.10;;;;;;;;;;4939025;28;20035;-89
2023/07/14 10:15:23;;;;;;;4.15;2.30;;;;;;;;;;4936715;28;20040;-88
2023/07/14 10:21:00;;;;;;;6.30;2.20;;;;;;;;;;5096286;23;20059;-88
2023/07/14 10:24:05;;;;;;;5.97;1.92;;;;;;;;;;4955843;28;20039;-89
2023/07/14 10:29:50;;;;;;;5.97;2.03;;;;;;;;;;5564179;23;21681;-91
2023/07/14 10:33:01;;;;;;;3.95;1.63;;;;;;;;;;4938757;29;20036;-90
2023/07/14 10:41:13;;;;;;;5.75;1.83;;;;;;;;;;5340447;23;20052;-90
2023/07/14 10:50:04;;;;;;;2.95;1.27;;;;;;;;;;5178354;23;20289;-91
2023/07/14 10:52:55;;;;;;;4.18;1.80;;;;;;;;;;4943634;28;20059;-90
2023/07/14 10:55:43;;;;;;;5.00;1.67;;;;;;;;;;4958572;28;20063;-90
2023/07/14 10:58:37;;;;;;;3.58;1.33;;;;;;;;;;4943784;28;20044;-88
2023/07/14 11:01:45;;;;;;;5.85;2.00;;;;;;;;;;4957992;28;20028;-89
2023/07/14 11:07:33;;;;;;;3.33;1.67;;;;;;;;;;5658494;23;20027;-91
2023/07/14 11:10:34;;;;;;;3.08;1.85;;;;;;;;;;5067873;23;20030;-91
2023/07/14 11:13:24;;;;;;;6.25;2.05;;;;;;;;;;4944421;28;20040;-89
2023/07/14 11:25:52;;;;;;;5.72;1.58;;;;;;;;;;5381778;23;21316;-91
2023/07/14 11:40:20;;;;;;;4.55;2.00;;;;;;;;;;5942750;23;20323;-90
2023/07/14 11:43:11;;;;;;;4.90;1.60;;;;;;;;;;5267180;23;20134;-89
2023/07/14 11:49:17;;;;;;;4.57;2.00;;;;;;;;;;1370271;23;20038;-83
2023/07/14 12:19:22;;;;;;;3.88;1.58;;;;;;;;;;964868;23;20303;-88
2023/07/14 12:24:58;;;;;;;3.10;1.67;;;;;;;;;;4983669;23;20063;-89
2023/07/14 12:27:53;;;;;;;3.70;1.60;;;;;;;;;;4953889;28;20059;-88
2023/07/14 12:30:34;;;;;;;3.40;1.15;;;;;;;;;;4939131;28;20051;-88
2023/07/14 12:43:51;;;;;;;3.13;1.63;;;;;;;;;;5556472;23;20027;31
2023/07/14 12:46:57;;;;;;;3.55;1.48;;;;;;;;;;4961801;23;20211;-87
2023/07/14 12:50:03;;;;;;;5.13;1.40;;;;;;;;;;4955905;28;20087;-89
2023/07/14 13:32:09;;;;;;;2.92;1.13;;;;;;;;;;4952490;28;20171;-88
2023/07/14 13:34:52;;;;;;;2.95;1.30;;;;;;;;;;4938748;29;20052;-88
2023/07/14 13:40:21;;;;;;;5.38;1.50;;;;;;;;;;4953204;28;20047;-88
2023/07/14 13:43:05;;;;;;;8.82;2.72;;;;;;;;;;4948141;23;20120;-90
2023/07/14 13:51:39;;;;;;;5.38;1.80;;;;;;;;;;4960305;23;20500;-87
2023/07/14 13:54:21;;;;;;;5.53;1.73;;;;;;;;;;4951241;28;20051;-89
2023/07/14 13:57:08;;;;;;;3.00;1.17;;;;;;;;;;5118703;23;20115;-87
2023/07/14 14:16:46;;;;;;;3.03;1.30;;;;;;;;;;4937757;29;20036;-88
2023/07/14 14:22:34;;;;;;;3.97;1.63;;;;;;;;;;4955501;23;20060;-88
2023/07/14 14:25:18;;;;;;;5.13;1.90;;;;;;;;;;4957108;28;20035;-88
2023/07/14 14:28:27;;;;;;;3.35;1.50;;;;;;;;;;5015901;23;20059;-88
2023/07/14 14:31:13;;;;;;;2.07;1.20;;;;;;;;;;4952483;23;20079;-88
2023/07/14 14:33:55;;;;;;;7.85;2.20;;;;;;;;;;4936823;29;20048;-87
2023/07/14 14:37:02;;;;;;;5.35;1.73;;;;;;;;;;5009077;23;20052;-88
2023/07/14 14:40:18;;;;;;;5.70;1.50;;;;;;;;;;4935974;29;20059;-89
2023/07/14 14:43:12;;;;;;;3.00;1.33;;;;;;;;;;5157683;23;20062;-87
2023/07/14 14:46:18;;;;;;;5.43;1.85;;;;;;;;;;4918890;29;20076;-89
2023/07/14 14:49:00;;;;;;;3.80;1.73;;;;;;;;;;4918257;29;20080;-87
2023/07/14 14:51:54;;;;;;;2.97;1.80;;;;;;;;;;4917688;29;20044;-88
2023/07/14 14:54:59;;;;;;;5.28;1.73;;;;;;;;;;4916484;29;20044;-87
2023/07/14 14:57:45;;;;;;;2.33;1.50;;;;;;;;;;4916303;29;20045;-89
2023/07/14 15:00:31;;;;;;;4.60;1.40;;;;;;;;;;4916930;29;20200;-88
2023/07/14 15:03:15;;;;;;;1.83;1.10;;;;;;;;;;4917983;29;20036;-89
2023/07/14 15:06:19;;;;;;;2.92;1.52;;;;;;;;;;4917440;29;20059;-88
2023/07/14 15:09:07;;;;;;;2.55;1.70;;;;;;;;;;4916980;29;20037;-88
2023/07/14 15:11:49;;;;;;;5.45;1.58;;;;;;;;;;4915179;29;20493;-87
2023/07/14 15:14:36;;;;;;;2.10;1.27;;;;;;;;;;4915731;29;20032;-88
2023/07/14 15:17:27;;;;;;;2.75;1.65;;;;;;;;;;4917629;29;20642;-88
2023/07/14 15:20:33;;;;;;;4.50;1.75;;;;;;;;;;5184945;23;20131;-88
2023/07/14 15:23:27;;;;;;;4.50;1.90;;;;;;;;;;4955955;28;20074;-88
2023/07/14 15:26:46;;;;;;;4.28;1.70;;;;;;;;;;4940117;29;20027;-89
2023/07/14 15:29:43;;;;;;;3.80;1.50;;;;;;;;;;4941934;29;20028;-88
2023/07/14 15:32:53;;;;;;;4.78;1.50;;;;;;;;;;4941009;28;20027;-88
2023/07/14 15:35:42;;;;;;;2.72;1.40;;;;;;;;;;5000091;23;20051;-88
2023/07/14 15:38:24;;;;;;;3.25;1.60;;;;;;;;;;4940881;28;20058;-88
2023/07/14 15:41:13;;;;;;;2.95;1.52;;;;;;;;;;4939269;28;20155;-88
2023/07/14 15:43:56;;;;;;;4.97;1.88;;;;;;;;;;4940390;28;20052;-88
2023/07/14 15:46:41;;;;;;;3.53;1.70;;;;;;;;;;4940758;28;20091;-88
2023/07/14 15:49:25;;;;;;;7.28;1.92;;;;;;;;;;4941147;28;20054;-88
2023/07/14 15:52:30;;;;;;;3.25;1.55;;;;;;;;;;4955826;28;20048;-88
2023/07/14 15:55:36;;;;;;;3.35;1.67;;;;;;;;;;4954084;29;20156;-87
2023/07/14 15:58:19;;;;;;;5.30;1.90;;;;;;;;;;4939685;28;20141;-88
2023/07/14 16:01:06;;;;;;;4.88;1.35;;;;;;;;;;4955247;28;20035;-88
2023/07/14 16:04:19;;;;;;;4.40;1.80;;;;;;;;;;5072976;23;20065;-88
2023/07/14 16:07:26;;;;;;;5.30;1.80;;;;;;;;;;5255782;23;20059;-88
2023/07/14 16:10:20;;;;;;;8.27;1.92;;;;;;;;;;4935392;29;20039;-89
2023/07/14 16:13:26;;;;;;;4.68;2.03;;;;;;;;;;5162598;23;20058;-88
2023/07/14 16:16:25;;;;;;;8.07;2.28;;;;;;;;;;4953528;28;20043;-89
2023/07/14 16:19:12;;;;;;;6.70;2.40;;;;;;;;;;4939520;29;20054;-89
2023/07/14 16:30:42;;;;;;;4.03;2.10;;;;;;;;;;4962344;23;20051;-87
2023/07/14 16:36:23;;;;;;;5.32;1.90;;;;;;;;;;5009972;23;20054;-87
2023/07/14 16:39:17;;;;;;;6.90;1.98;;;;;;;;;;4955256;28;20051;-89
2023/07/14 16:41:58;;;;;;;4.57;2.00;;;;;;;;;;4954618;28;20057;-91
2023/07/14 16:44:44;;;;;;;3.03;1.90;;;;;;;;;;4939425;28;20034;-89
2023/07/14 17:08:24;;;;;;;6.47;2.22;;;;;;;;;;4936472;26;20051;-88
2023/07/14 17:11:08;;;;;;;7.38;2.10;;;;;;;;;;4935959;29;20060;-88
2023/07/14 17:13:49;;;;;;;3.95;2.05;;;;;;;;;;4936178;29;20040;-88
2023/07/14 17:19:15;;;;;;;6.28;2.30;;;;;;;;;;5030361;23;20102;-88
2023/07/14 17:24:31;;;;;;;8.18;2.22;;;;;;;;;;5271320;23;20056;-88
2023/07/14 17:29:47;;;;;;;3.72;2.00;;;;;;;;;;5796206;23;20933;-88
2023/07/14 17:32:33;;;;;;;11.13;2.63;;;;;;;;;;4937617;28;20046;-88
2023/07/14 17:35:20;;;;;;;6.95;2.50;;;;;;;;;;4957943;28;20180;-89
2023/07/14 17:38:16;;;;;;;5.75;2.58;;;;;;;;;;4957190;28;20155;-87
2023/07/14 17:41:09;;;;;;;8.90;2.40;;;;;;;;;;4942791;28;20023;-88
2023/07/14 17:44:13;;;;;;;4.15;2.42;;;;;;;;;;4955719;28;20035;-88
2023/07/14 17:47:19;;;;;;;5.93;2.42;;;;;;;;;;5106934;23;20048;-88
2023/07/14 17:50:05;;;;;;;7.60;2.58;;;;;;;;;;4943175;29;20038;-87
2023/07/14 17:52:50;;;;;;;5.95;2.15;;;;;;;;;;4942317;28;20063;-88
2023/07/14 18:05:51;;;;;;;11.48;2.92;;;;;;;;;;4974730;28;20060;-87
2023/07/14 18:08:46;;;;;;;;;;;;;;;;;;4976042;28;20054;-88
2023/07/14 18:11:36;;;;;;;8.35;2.45;;;;;;;;;;4973997;28;19918;-88
2023/07/14 18:14:28;;;;;;;4.88;2.30;;;;;;;;;;4976412;28;20035;-88
2023/07/14 18:17:14;;;;;;;8.25;2.63;;;;;;;;;;4961949;28;20107;-88
2023/07/14 18:19:58;;;;;;;6.90;2.50;;;;;;;;;;4962253;28;20075;-88
2023/07/14 18:37:37;;;;;;;5.05;2.95;;;;;;;;;;4958347;28;20051;-88
2023/07/14 18:40:24;;;;;;;7.72;2.80;;;;;;;;;;4957869;28;20042;-89
2023/07/14 18:43:27;;;;;;;3.85;2.20;;;;;;;;;;5371510;23;20047;-89
2023/07/14 18:46:16;;;;;;;7.97;2.47;;;;;;;;;;4942780;29;20043;-88
2023/07/14 18:49:25;;;;;;;5.40;2.50;;;;;;;;;;4958230;28;20066;-88
2023/07/14 18:52:27;;;;;;;8.57;3.25;;;;;;;;;;4956556;28;20040;-88
2023/07/14 18:55:41;;;;;;;7.10;2.83;;;;;;;;;;4943465;28;20048;-89
2023/07/14 19:03:52;;;;;;;6.03;2.97;;;;;;;;;;5059908;23;20061;-88
2023/07/14 19:06:34;;;;;;;5.15;2.50;;;;;;;;;;4956983;28;20448;-87
2023/07/14 19:09:16;;;;;;;6.93;2.92;;;;;;;;;;4956606;28;20119;-87
2023/07/14 19:11:57;;;;;;;4.65;2.58;;;;;;;;;;4942580;28;20023;-87
2023/07/14 19:14:57;;;;;;;5.60;2.70;;;;;;;;;;4942467;28;20032;-87
2023/07/14 19:17:40;;;;;;;6.38;2.80;;;;;;;;;;4956284;28;20036;-87
2023/07/14 19:20:22;;;;;;;8.23;2.72;;;;;;;;;;4942014;29;20036;-88
2023/07/14 19:23:05;;;;;;;5.97;2.47;;;;;;;;;;4941002;28;20042;-88
2023/07/14 19:25:46;;;;;;;8.82;2.75;;;;;;;;;;4940797;29;20075;-88
2023/07/14 19:28:39;;;;;;;9.93;3.00;;;;;;;;;;4955868;28;20094;-87
2023/07/14 19:31:29;;;;;;;6.25;3.10;;;;;;;;;;4956569;28;20087;-86
2023/07/14 19:34:14;;;;;;;6.60;2.53;;;;;;;;;;4943423;28;20036;-88
2023/07/14 19:37:14;;;;;;;7.13;2.95;;;;;;;;;;4958139;28;20173;-89
2023/07/14 19:40:09;;;;;;;7.60;2.97;;;;;;;;;;4958352;28;20028;-88
2023/07/14 19:43:00;;;;;;;5.78;2.58;;;;;;;;;;4957738;28;20078;-88
2023/07/14 19:45:40;;;;;;;6.20;2.63;;;;;;;;;;4942046;28;20078;-88
2023/07/14 19:48:28;;;;;;;7.50;3.08;;;;;;;;;;4956176;28;20038;-88
2023/07/14 19:51:29;;;;;;;5.05;2.78;;;;;;;;;;4942406;28;20031;-88
2023/07/14 19:54:20;;;;;;;4.35;2.80;;;;;;;;;;4942034;29;20043;-88
2023/07/14 20:00:31;;;;;;;9.65;2.72;;;;;;;;;;5191600;23;20059;-88
2023/07/14 20:03:20;;;;;;;6.78;2.78;;;;;;;;;;4937451;29;20043;-88
2023/07/14 20:06:15;;;;;;;6.85;2.78;;;;;;;;;;4937651;29;20243;-88
2023/07/14 20:09:06;;;;;;;6.30;2.50;;;;;;;;;;4924057;29;20056;-88
2023/07/14 20:11:57;;;;;;;7.47;2.92;;;;;;;;;;4937235;29;20047;-88
2023/07/14 20:15:19;;;;;;;4.18;2.70;;;;;;;;;;5114772;23;20066;-89
2023/07/14 20:17:59;;;;;;;7.38;2.80;;;;;;;;;;4942209;28;20066;-87
2023/07/14 20:20:44;;;;;;;7.25;3.30;;;;;;;;;;4941899;28;20033;-88
2023/07/14 20:23:30;;;;;;;6.50;3.25;;;;;;;;;;4956376;28;20075;-88
2023/07/14 20:26:54;;;;;;;8.00;2.78;;;;;;;;;;4957603;28;20063;-90
2023/07/14 20:29:45;;;;;;;9.13;3.10;;;;;;;;;;4956557;28;20031;-88
2023/07/14 20:32:38;;;;;;;8.43;3.97;;;;;;;;;;4951725;28;20071;-87
2023/07/14 20:35:11;;;;;;;6.38;3.45;;;;;;;;;;4923425;29;20043;-87